Airfield :
LOGIN :

Register | Disclaimer

   EN    FR    IT 

 










Legend :    VFR   Marginal VFR   IFR   Intensive IFR   Very Intensive IFR
Visi :
Ceiling :
>= 8 km
>= 3000ft
5 to 8 km
1000 to 3000 ft
1500m to 5 km
500 to 1000 ft
800 to 1500m
200 to 500 ft
< 800m
< 200 ft
Symbols :   Thunderstorms  Fog  Heavy snow  Heavy precipitations  Wind > 20 kt
SIGMETs :     Misc.  Thunderstorms  Icing  Turbulence  Mountain Waves  Volcanic Ashes







- Airport Elevation : 336 ft
- IATA code : GCI
- Download approach charts


EGJB - Guernsey

CURRENT METAR :
  • 201720Z 02004KT 9999 VCSH FEW014 03/03 Q1002

EXPIRED METARs :
  • 201650Z 02003KT 9999 VCSH FEW014 SCT042 04/03 Q1002
  • 201620Z 02004KT 9999 VCSH FEW013 SCT045 04/03 Q1002
  • 201550Z 02004KT 9999 -SHRA FEW008 SCT045 04/03 Q1002
  • 201520Z 36005KT 9999 VCSH FEW008 SCT045 03/03 Q1002
  • 201450Z 03006KT 8000 -SHRA FEW007 SCT010 FEW014CB BKN028 03/03 Q1003

TAF TAF EGJB
Valid from the 20 at 18:00 until the 21 at 03:00 UTC


201700Z 2018/2103 12010KT 9999 FEW015 BKN042
TEMPO 2018/2021 4000 SHRAGS BKN015
ATIS : +44 1481 238 957
No reported NOTAMs for that airfield.



MET'MAP, your aeronautical weather chart ! - Copyright ORBIFLY December 2007 - Disclaimer

ORBIFLY MET'MAP TEAM :

Programming & Development : Alexandra Zaïnal
Concept & Development : Baudouin d'Aumeries
Co-Development & Prog : Marc-Olivier Méhu
Technical & hardware support : Manuel Goepfert

Contact : metmap@orbifly.com




SOURCES & CREDITS :

   NOAA